Remicourt, Belgium
Current Conditions -  °F | °C
As of 10:50 PM on Friday 28 Nov 2014 (Local Time) from EBLG Reporting Station
Haze Haze  
Wind Chill: 34°   Ceiling: Unl
Heat Index: 39°   Visibility: 3mi
Dew Point: 36°   Wind: 8mph
Humidity: 87%   Direction: 60°ENE
Pressure: 29.8"   Gusts: NA
Location:  50.68°N, 5.33°E
Report Text: EBLG 282150Z 06007KT 5000 BR NSC 04/02 Q1009 NOSIG
Loading
Personal Weather Stations






























Interactive Weather Map New forecast layout! Learn more

10-Day Weather Forecast

Advertisements
Track Severe Weather on mobile